TimeMDT,TemperatureF,Dew PointF,Humidity,Sea Level PressureIn,VisibilityMPH,Wind Direction,Wind SpeedMPH,Gust SpeedMPH,PrecipitationIn,Events,Conditions,WindDirDegrees,DateUTC
12:55 AM,51.1,18.0,27,29.78,10.0,SW,5.8,-,N/A,,Clear,220,2012-10-03 06:55:00
1:55 AM,48.0,19.0,32,29.78,10.0,Calm,Calm,-,N/A,,Clear,0,2012-10-03 07:55:00
2:55 AM,57.0,8.1,14,29.78,10.0,West,11.5,18.4,N/A,,Clear,280,2012-10-03 08:55:00
3:55 AM,52.0,3.9,14,29.82,10.0,WNW,12.7,20.7,N/A,,Clear,290,2012-10-03 09:55:00
4:55 AM,48.9,15.1,26,29.87,10.0,NNE,15.0,21.9,N/A,,Clear,20,2012-10-03 10:55:00
5:55 AM,48.0,9.0,21,29.89,10.0,West,8.1,-,N/A,,Clear,260,2012-10-03 11:55:00
6:55 AM,41.0,10.9,29,29.97,10.0,Variable,4.6,-,N/A,,Clear,0,2012-10-03 12:55:00
7:55 AM,41.0,14.0,33,30.04,10.0,NNW,4.6,-,N/A,,Clear,340,2012-10-03 13:55:00
8:55 AM,42.1,7.0,24,30.09,10.0,North,20.7,28.8,N/A,,Clear,10,2012-10-03 14:55:00
9:55 AM,43.0,3.0,19,30.16,10.0,NNE,16.1,-,N/A,,Clear,20,2012-10-03 15:55:00
10:55 AM,45.0,1.0,16,30.17,10.0,NNW,13.8,20.7,N/A,,Clear,340,2012-10-03 16:55:00
11:55 AM,48.0,3.9,16,30.19,10.0,NE,10.4,-,N/A,,Clear,40,2012-10-03 17:55:00
12:55 PM,50.0,7.0,18,30.20,10.0,North,8.1,18.4,N/A,,Clear,360,2012-10-03 18:55:00
2:55 PM,53.1,10.0,18,30.18,10.0,NNE,9.2,-,N/A,,Clear,20,2012-10-03 20:55:00
3:55 PM,53.1,9.0,17,30.18,10.0,NNE,10.4,17.3,N/A,,Clear,20,2012-10-03 21:55:00
4:55 PM,52.0,12.9,21,30.18,10.0,NNE,10.4,-,N/A,,Clear,20,2012-10-03 22:55:00
5:55 PM,51.1,14.0,23,30.19,10.0,NNE,10.4,-,N/A,,Clear,30,2012-10-03 23:55:00
6:55 PM,46.9,16.0,29,30.22,10.0,North,6.9,-,N/A,,Clear,10,2012-10-04 00:55:00
7:55 PM,43.0,15.1,32,30.24,10.0,NW,6.9,-,N/A,,Clear,310,2012-10-04 01:55:00
8:55 PM,41.0,12.9,32,30.25,10.0,WNW,6.9,-,N/A,,Clear,300,2012-10-04 02:55:00
9:55 PM,39.9,12.9,33,30.25,10.0,WNW,8.1,-,N/A,,Clear,300,2012-10-04 03:55:00
10:55 PM,35.1,16.0,46,30.27,10.0,NNW,4.6,-,N/A,,Clear,330,2012-10-04 04:55:00
11:55 PM,35.1,15.1,44,30.26,10.0,NW,6.9,-,N/A,,Clear,310,2012-10-04 05:55:00